Time;durP1;ratioP1;P1;durP2;ratioP2;P2;SDS_P1;SDS_P2;PMS_P1;PMS_P2;Temp;Humidity;BMP_temperature;BMP_pressure;BME280_temperature;BME280_humidity;BME280_pressure;Samples;Min_cycle;Max_cycle;Signal;HPM_P1;HPM_P2
2022/04/18 00:00:54;;;;;;;3.3;2.7;;;;;;;2.22;75.39746;940.1697;;;;
2022/04/18 00:03:21;;;;;;;2.9;2.6;;;;;;;2.29;74.92676;940.1696;;;;
2022/04/18 00:05:59;;;;;;;4.8;2.8;;;;;;;2.33;74.64355;940.1344;;;;
2022/04/18 00:08:21;;;;;;;3.6;2.7;;;;;;;2.34;74.53223;940.0083;;;;
2022/04/18 00:13:14;;;;;;;4;2.4;;;;;;;2.32;74.4502;940.0867;;;;
2022/04/18 00:15:46;;;;;;;3.6;2.4;;;;;;;2.12;74.93066;939.9969;;;;
2022/04/18 00:18:16;;;;;;;2.6;2;;;;;;;1.95;75.61621;939.9791;;;;
2022/04/18 00:20:47;;;;;;;3.2;2.4;;;;;;;1.94;75.92969;939.9214;;;;
2022/04/18 00:23:11;;;;;;;4;2.6;;;;;;;1.84;76.30176;939.9355;;;;
2022/04/18 00:25:37;;;;;;;3.2;2.3;;;;;;;1.76;76.76855;939.8524;;;;
2022/04/18 00:28:36;;;;;;;3.2;2.4;;;;;;;1.87;76.38672;939.8225;;;;
2022/04/18 00:31:04;;;;;;;2.7;2.4;;;;;;;2.02;75.91113;939.7704;;;;
2022/04/18 00:33:29;;;;;;;3.1;2.6;;;;;;;1.98;76.02539;939.7151;;;;
2022/04/18 00:36:01;;;;;;;3.6;2.4;;;;;;;2.06;75.86133;939.6506;;;;
2022/04/18 00:38:33;;;;;;;2.4;2.2;;;;;;;2.08;75.45996;939.6104;;;;
2022/04/18 00:41:02;;;;;;;4.3;2.5;;;;;;;2.01;75.71582;939.6504;;;;
2022/04/18 00:43:27;;;;;;;3.6;2.6;;;;;;;2.08;75.65039;939.6927;;;;
2022/04/18 00:46:00;;;;;;;4;3.1;;;;;;;2.05;75.6582;939.6451;;;;
2022/04/18 00:48:30;;;;;;;3.6;2.8;;;;;;;2.05;75.5332;939.6883;;;;
2022/04/18 00:54:43;;;;;;;3.2;2.6;;;;;;;1.97;75.52051;939.6077;;;;
2022/04/18 00:57:08;;;;;;;2.8;2.4;;;;;;;1.73;76.41699;939.5122;;;;
2022/04/18 00:59:34;;;;;;;3;2.5;;;;;;;1.69;76.56641;939.5967;;;;
2022/04/18 01:01:59;;;;;;;4.1;2.6;;;;;;;1.61;77.01074;939.5156;;;;
2022/04/18 01:04:29;;;;;;;3;2.3;;;;;;;1.64;77.10449;939.5028;;;;
2022/04/18 01:06:55;;;;;;;3.1;2.3;;;;;;;1.81;76.375;939.443;;;;
2022/04/18 01:12:43;;;;;;;3;2.4;;;;;;;1.53;77.32129;939.3722;;;;
2022/04/18 01:15:16;;;;;;;3.6;2.8;;;;;;;1.76;76.76953;939.2985;;;;
2022/04/18 01:17:41;;;;;;;3.3;2.6;;;;;;;1.84;76.52734;939.2277;;;;
2022/04/18 01:20:11;;;;;;;3.1;2.4;;;;;;;1.89;76.06543;939.3318;;;;
2022/04/18 01:22:36;;;;;;;2.5;2.3;;;;;;;1.88;76.18652;939.3628;;;;
2022/04/18 01:29:54;;;;;;;3.4;2.6;;;;;;;1.77;76.26855;939.255;;;;
2022/04/18 01:32:18;;;;;;;2.9;2.5;;;;;;;1.76;76.48828;939.2583;;;;
2022/04/18 01:34:46;;;;;;;4.1;2.9;;;;;;;1.61;77.06641;939.2503;;;;
2022/04/18 01:37:11;;;;;;;4.5;3.5;;;;;;;1.55;77.53516;939.1227;;;;
2022/04/18 01:39:40;;;;;;;5.8;5;;;;;;;1.7;76.9707;939.0283;;;;
2022/04/18 01:42:04;;;;;;;2.5;2.3;;;;;;;1.62;76.82227;939.1171;;;;
2022/04/18 01:44:32;;;;;;;2.5;2.2;;;;;;;1.53;77.10938;939.0505;;;;
2022/04/18 01:46:58;;;;;;;3.9;2.4;;;;;;;1.52;77.2832;939.0253;;;;
2022/04/18 01:49:30;;;;;;;4.2;2.4;;;;;;;1.44;77.7168;939.0242;;;;
2022/04/18 01:51:58;;;;;;;3.4;2.5;;;;;;;1.5;77.65039;939.0084;;;;
2022/04/18 01:54:24;;;;;;;3.1;2.6;;;;;;;1.6;77.25488;938.9447;;;;
2022/04/18 01:56:50;;;;;;;3.2;2.5;;;;;;;1.67;76.94238;938.9814;;;;
2022/04/18 02:01:40;;;;;;;3.8;2.7;;;;;;;1.63;77.2041;939.0236;;;;
2022/04/18 02:04:30;;;;;;;4.5;3;;;;;;;1.74;76.53027;938.9545;;;;
2022/04/18 02:06:55;;;;;;;4.4;3;;;;;;;1.83;76.24414;938.925;;;;
2022/04/18 02:09:21;;;;;;;3.4;2.9;;;;;;;1.83;75.94238;938.9735;;;;
2022/04/18 02:11:47;;;;;;;3.6;2.7;;;;;;;1.69;76.35449;938.9117;;;;
2022/04/18 02:14:15;;;;;;;2.8;2.3;;;;;;;1.72;76.29199;938.9467;;;;
2022/04/18 02:16:40;;;;;;;3.2;2.8;;;;;;;1.6;76.64941;938.9574;;;;
2022/04/18 02:19:08;;;;;;;2.8;2.4;;;;;;;1.35;77.41016;938.874;;;;
2022/04/18 02:21:33;;;;;;;3.6;2.8;;;;;;;1.4;77.24121;938.8881;;;;
2022/04/18 02:24:00;;;;;;;3.1;2.8;;;;;;;1.49;77.24609;938.9075;;;;
2022/04/18 02:26:25;;;;;;;3.1;2.6;;;;;;;1.42;77.73438;939.003;;;;
2022/04/18 02:28:52;;;;;;;3.3;2.7;;;;;;;1.32;78.20898;938.9631;;;;
2022/04/18 02:31:17;;;;;;;2.7;2.5;;;;;;;1.17;78.61621;938.978;;;;
2022/04/18 02:33:44;;;;;;;3.7;2.5;;;;;;;1.11;79.00684;938.9022;;;;
2022/04/18 02:36:14;;;;;;;3.5;2.3;;;;;;;1.38;78.10742;938.9437;;;;
2022/04/18 02:38:39;;;;;;;3.2;2.5;;;;;;;1.41;77.80176;938.9023;;;;
2022/04/18 02:41:38;;;;;;;3.8;2.3;;;;;;;1.53;77.46484;938.8564;;;;
2022/04/18 02:44:08;;;;;;;2.8;2.5;;;;;;;1.39;77.74023;938.8563;;;;
2022/04/18 02:46:38;;;;;;;3.2;2.3;;;;;;;1.36;77.70215;938.9108;;;;
2022/04/18 02:49:03;;;;;;;3.2;2.5;;;;;;;1.33;77.74219;938.9235;;;;
2022/04/18 02:54:39;;;;;;;3.5;2.7;;;;;;;1.22;78.40137;938.88;;;;
2022/04/18 02:57:04;;;;;;;3.8;2.6;;;;;;;1.1;79.09668;938.7928;;;;
2022/04/18 02:59:31;;;;;;;2.7;2.5;;;;;;;1.06;79.17773;938.7831;;;;
2022/04/18 03:01:57;;;;;;;2.7;2.5;;;;;;;0.9;79.64941;938.7559;;;;
2022/04/18 03:04:26;;;;;;;4.3;2.3;;;;;;;0.91;79.69531;938.7972;;;;
2022/04/18 03:06:51;;;;;;;3.2;2.4;;;;;;;0.71;80.0918;938.7026;;;;
2022/04/18 03:09:19;;;;;;;3.1;2.5;;;;;;;0.73;80.72168;938.7642;;;;
2022/04/18 03:11:44;;;;;;;3.8;2.8;;;;;;;0.83;80.37207;938.7644;;;;
2022/04/18 03:14:12;;;;;;;5.3;3;;;;;;;0.61;81.30176;938.7573;;;;
2022/04/18 03:16:37;;;;;;;2.7;2.5;;;;;;;0.65;81.12988;938.7488;;;;
2022/04/18 03:19:04;;;;;;;3.9;2.4;;;;;;;0.39;82.15137;938.5834;;;;
2022/04/18 03:21:29;;;;;;;3.1;2.5;;;;;;;0.47;82.05469;938.5792;;;;
2022/04/18 03:23:57;;;;;;;3.3;2.3;;;;;;;0.53;81.7207;938.5736;;;;
2022/04/18 03:26:22;;;;;;;3.7;2.6;;;;;;;0.51;81.57031;938.5514;;;;
2022/04/18 03:28:50;;;;;;;3.1;2.6;;;;;;;0.47;81.77539;938.5369;;;;
2022/04/18 03:31:15;;;;;;;3;2.5;;;;;;;0.54;81.43262;938.4833;;;;
2022/04/18 03:33:42;;;;;;;2.9;2.6;;;;;;;0.48;81.80176;938.3544;;;;
2022/04/18 03:44:54;;;;;;;4.4;3.4;;;;;;;0.33;83.36621;938.2983;;;;
2022/04/18 03:47:19;;;;;;;4.1;3.1;;;;;;;0.44;82.85156;938.2561;;;;
2022/04/18 03:49:47;;;;;;;3.5;2.8;;;;;;;0.61;82.01563;938.2775;;;;
2022/04/18 03:52:12;;;;;;;4.4;2.8;;;;;;;0.62;81.43848;938.1811;;;;
2022/04/18 03:54:39;;;;;;;3;2.7;;;;;;;0.65;81.09668;938.23;;;;
2022/04/18 03:57:04;;;;;;;3.2;2.8;;;;;;;0.78;80.49805;938.2297;;;;
2022/04/18 03:59:30;;;;;;;2.8;2.4;;;;;;;0.76;80.38086;938.2115;;;;
2022/04/18 04:06:06;;;;;;;3.9;3;;;;;;;0.73;80.30859;938.1938;;;;
2022/04/18 04:08:35;;;;;;;3;2.4;;;;;;;0.61;80.93359;938.182;;;;
2022/04/18 04:11:01;;;;;;;2.7;2.3;;;;;;;0.6;80.93164;938.1742;;;;
2022/04/18 04:13:27;;;;;;;3.1;2.5;;;;;;;0.49;81.22363;938.1691;;;;
2022/04/18 04:15:52;;;;;;;2.6;2.4;;;;;;;0.49;81.74609;938.1619;;;;
2022/04/18 04:18:17;;;;;;;2.9;2.5;;;;;;;0.55;81.53516;938.1289;;;;
2022/04/18 04:20:44;;;;;;;3.3;2.6;;;;;;;0.63;81.2832;938.1697;;;;
2022/04/18 04:23:09;;;;;;;3.9;2.8;;;;;;;0.6;81.14355;938.1257;;;;
2022/04/18 04:25:34;;;;;;;10.1;3.7;;;;;;;0.42;81.99023;938.0971;;;;
2022/04/18 04:28:02;;;;;;;8.6;3.5;;;;;;;0.52;81.60742;938.0517;;;;
2022/04/18 04:30:28;;;;;;;4;2.8;;;;;;;0.45;82.17383;938.0231;;;;
2022/04/18 04:33:00;;;;;;;3.4;2.8;;;;;;;0.6;81.50098;938.0771;;;;
2022/04/18 04:35:34;;;;;;;3.3;2.6;;;;;;;0.68;81.31348;937.9916;;;;
2022/04/18 04:38:05;;;;;;;3;2.5;;;;;;;0.65;81.31934;938.0186;;;;
2022/04/18 04:40:30;;;;;;;3.8;2.7;;;;;;;0.73;81.35742;938.0308;;;;
2022/04/18 04:43:02;;;;;;;3.2;2.7;;;;;;;0.84;80.6543;938.001;;;;
2022/04/18 04:45:32;;;;;;;3.9;3;;;;;;;0.79;80.91211;938.0595;;;;
2022/04/18 04:47:55;;;;;;;7.4;4.3;;;;;;;0.77;80.80859;938.0139;;;;
2022/04/18 04:50:27;;;;;;;6.2;4.3;;;;;;;0.84;80.75488;938.1155;;;;
2022/04/18 04:52:52;;;;;;;5.5;3.4;;;;;;;0.93;80.21289;938.0895;;;;
2022/04/18 04:55:22;;;;;;;4.7;3.5;;;;;;;1.03;79.60742;938.0771;;;;
2022/04/18 04:57:47;;;;;;;7.1;3.2;;;;;;;0.9;79.88379;938.0591;;;;
2022/04/18 05:00:16;;;;;;;4.6;3.1;;;;;;;0.82;80.1709;938.1214;;;;
2022/04/18 05:02:49;;;;;;;4.5;2.7;;;;;;;0.64;80.94043;938.0871;;;;
2022/04/18 05:05:16;;;;;;;3;2.4;;;;;;;0.7;80.97266;938.1462;;;;
2022/04/18 05:07:45;;;;;;;3;2.8;;;;;;;0.49;81.6582;938.1221;;;;
2022/04/18 05:10:17;;;;;;;2.8;2.5;;;;;;;0.62;81.67188;938.1746;;;;
2022/04/18 05:16:59;;;;;;;3.6;3.3;;;;;;;0.8;80.99219;938.1507;;;;
2022/04/18 05:19:24;;;;;;;4.9;4.4;;;;;;;0.78;80.78809;938.0942;;;;
2022/04/18 05:21:53;;;;;;;3.3;3;;;;;;;0.88;80.43848;938.1547;;;;
2022/04/18 05:24:23;;;;;;;3.7;3.4;;;;;;;0.91;80.3877;938.156;;;;
2022/04/18 05:26:48;;;;;;;5.3;3;;;;;;;0.96;80.21973;938.1498;;;;
2022/04/18 05:29:17;;;;;;;4;2.7;;;;;;;1.08;79.81738;938.0728;;;;
2022/04/18 05:31:42;;;;;;;3.4;2.6;;;;;;;0.97;80.06348;938.0692;;;;
2022/04/18 05:34:10;;;;;;;4.7;3.2;;;;;;;1.45;81.33887;938.1013;;;;
2022/04/18 05:36:37;;;;;;;4.4;2.8;;;;;;;3.11;74.82422;938.0226;;;;
2022/04/18 05:39:08;;;;;;;4;2.7;;;;;;;4.7;68.91016;938.0502;;;;
2022/04/18 05:41:33;;;;;;;3.7;1.9;;;;;;;5.96;62.86719;937.9602;;;;
2022/04/18 05:43:58;;;;;;;4.1;1.9;;;;;;;6.44;60.24609;937.9841;;;;
2022/04/18 05:46:27;;;;;;;1.7;1.6;;;;;;;7.45;57.49707;937.9163;;;;
2022/04/18 05:48:53;;;;;;;2.3;1.9;;;;;;;7.93;55.20117;937.9445;;;;
2022/04/18 05:51:18;;;;;;;2.2;1.6;;;;;;;8.67;52.12402;937.9397;;;;
2022/04/18 05:53:46;;;;;;;2;1.6;;;;;;;8.95;52.0332;937.9578;;;;
2022/04/18 05:56:11;;;;;;;1.8;1.7;;;;;;;10.27;48.15137;937.8943;;;;
2022/04/18 05:58:40;;;;;;;2.1;1.7;;;;;;;10.68;46.65723;937.8907;;;;
2022/04/18 06:01:04;;;;;;;2.1;1.6;;;;;;;11.01;46.68066;937.8727;;;;
2022/04/18 06:03:31;;;;;;;2.4;1.6;;;;;;;12.06;43.95215;937.8409;;;;
2022/04/18 06:06:01;;;;;;;2;1.5;;;;;;;12.77;42.30273;937.8828;;;;
2022/04/18 06:08:26;;;;;;;2.6;1.7;;;;;;;12.18;42.35938;937.8093;;;;
2022/04/18 06:10:57;;;;;;;3;1.7;;;;;;;12.5;41.96582;937.8064;;;;
2022/04/18 06:13:25;;;;;;;2.2;1.7;;;;;;;12.34;40.32324;937.7795;;;;
2022/04/18 06:16:04;;;;;;;1.6;1.5;;;;;;;12.92;40.42285;937.8096;;;;
2022/04/18 06:18:32;;;;;;;1.9;1.6;;;;;;;13.92;38.07617;937.8011;;;;
2022/04/18 06:20:57;;;;;;;2.7;1.6;;;;;;;14.44;37.01563;937.7683;;;;
2022/04/18 06:23:25;;;;;;;2.8;1.5;;;;;;;15.28;35.62109;937.6898;;;;
2022/04/18 06:25:50;;;;;;;2.1;1.6;;;;;;;15.49;35.55762;937.7787;;;;
2022/04/18 06:28:20;;;;;;;2.5;1.6;;;;;;;16.22;35.61621;937.7417;;;;
2022/04/18 06:30:44;;;;;;;1.9;1.7;;;;;;;17.49;31.85742;937.7556;;;;
2022/04/18 06:33:13;;;;;;;1.7;1.5;;;;;;;17.01;32.13477;937.7115;;;;
2022/04/18 06:35:46;;;;;;;2.4;1.5;;;;;;;19.1;29.85352;937.6545;;;;
2022/04/18 06:38:13;;;;;;;4.6;2;;;;;;;18.6;29.59961;937.6731;;;;
2022/04/18 06:40:38;;;;;;;2.5;1.6;;;;;;;16.69;32.18066;937.6164;;;;
2022/04/18 06:43:07;;;;;;;1.4;1.3;;;;;;;17.57;30.12207;937.6665;;;;
2022/04/18 06:45:32;;;;;;;3;1.5;;;;;;;18.31;30.83398;937.5679;;;;
2022/04/18 06:48:01;;;;;;;3.3;1.6;;;;;;;19.11;29.5293;937.5469;;;;
2022/04/18 06:50:33;;;;;;;1.7;1.6;;;;;;;19.41;27.91797;937.5444;;;;
2022/04/18 06:53:43;;;;;;;1.7;1.5;;;;;;;20.14;28.43066;937.4922;;;;
2022/04/18 06:58:35;;;;;;;2.1;1.2;;;;;;;20.78;27.48926;937.4742;;;;
2022/04/18 07:01:00;;;;;;;1.8;1.3;;;;;;;21.78;26.77832;937.5588;;;;
2022/04/18 07:03:30;;;;;;;1.5;1.1;;;;;;;21.1;26.60938;937.4614;;;;
2022/04/18 07:05:56;;;;;;;1.9;1.4;;;;;;;22.4;25.77246;937.5061;;;;
2022/04/18 07:08:21;;;;;;;1.6;1.3;;;;;;;23.26;23.98926;937.4643;;;;
2022/04/18 07:10:50;;;;;;;1.9;1.2;;;;;;;23.33;23.53418;937.4484;;;;
2022/04/18 07:15:41;;;;;;;1.7;1.2;;;;;;;21.98;25.77148;937.4644;;;;
2022/04/18 07:18:08;;;;;;;1.5;1.4;;;;;;;22.38;25.03223;937.41;;;;
2022/04/18 07:20:33;;;;;;;1.9;1.4;;;;;;;22.9;23.73438;937.3619;;;;
2022/04/18 07:22:59;;;;;;;1.6;1.2;;;;;;;23.7;24.21191;937.3289;;;;
2022/04/18 07:25:24;;;;;;;1.2;1.1;;;;;;;23.05;23.69629;937.2814;;;;
2022/04/18 07:27:52;;;;;;;1.8;1.3;;;;;;;23.81;23.35938;937.2281;;;;
2022/04/18 07:30:16;;;;;;;1.4;1.3;;;;;;;21.85;25.20215;937.2224;;;;
2022/04/18 07:33:16;;;;;;;1.2;1.1;;;;;;;22.84;23.37891;937.2003;;;;
2022/04/18 07:35:48;;;;;;;1.7;1.2;;;;;;;23.02;23.57617;937.2264;;;;
2022/04/18 07:43:18;;;;;;;1.8;1.6;;;;;;;22.29;25.37891;937.1475;;;;
2022/04/18 07:45:50;;;;;;;1.4;1.2;;;;;;;22.59;24.87988;937.1271;;;;
2022/04/18 07:48:16;;;;;;;2.1;1.4;;;;;;;22.13;25.1709;937.1361;;;;
2022/04/18 07:53:20;;;;;;;1.4;1.1;;;;;;;24.66;22.79102;937.1086;;;;
2022/04/18 07:55:45;;;;;;;1.6;1.1;;;;;;;24.81;22.23242;937.0991;;;;
2022/04/18 07:58:10;;;;;;;1.4;1.3;;;;;;;25.95;21.04688;937.1547;;;;
2022/04/18 08:00:39;;;;;;;1.8;1.3;;;;;;;25.26;22.47852;937.0769;;;;
2022/04/18 08:03:04;;;;;;;2.1;1.7;;;;;;;26.15;21.60156;937.0719;;;;
2022/04/18 08:05:35;;;;;;;1.6;1.2;;;;;;;24.33;22.98633;937.0488;;;;
2022/04/18 08:10:39;;;;;;;1.3;1.2;;;;;;;26.28;21.22852;937.1021;;;;
2022/04/18 08:13:04;;;;;;;2.1;1.3;;;;;;;26.91;19.46973;937.0916;;;;
2022/04/18 08:15:39;;;;;;;1.6;1.1;;;;;;;26.74;20.33887;937.0951;;;;
2022/04/18 08:18:05;;;;;;;1;1;;;;;;;24.86;21.34961;937.0792;;;;
2022/04/18 08:20:35;;;;;;;1.3;1.2;;;;;;;24.72;22.59375;937.0538;;;;
2022/04/18 08:23:05;;;;;;;1.3;1.2;;;;;;;25.69;21.38965;937.092;;;;
2022/04/18 08:25:30;;;;;;;1.8;1;;;;;;;26.38;20.42871;937.1193;;;;
2022/04/18 08:27:58;;;;;;;1.5;1.4;;;;;;;25.86;20.65332;937.052;;;;
2022/04/18 08:30:23;;;;;;;1.4;1.2;;;;;;;24.39;21.9873;937.0344;;;;
2022/04/18 08:32:52;;;;;;;1.7;1.2;;;;;;;25.04;21.13379;936.9986;;;;
2022/04/18 08:35:23;;;;;;;1;0.9;;;;;;;25.26;21.29883;936.9805;;;;
2022/04/18 08:37:53;;;;;;;1.1;1;;;;;;;25.23;21.14355;936.9839;;;;
2022/04/18 08:43:08;;;;;;;1.7;1;;;;;;;24.57;22.59766;936.8957;;;;
2022/04/18 08:45:35;;;;;;;1.1;1;;;;;;;23.66;23.11621;936.8867;;;;
2022/04/18 08:52:50;;;;;;;1.3;1.2;;;;;;;23.43;24.59766;936.757;;;;
2022/04/18 08:55:20;;;;;;;2.2;1.3;;;;;;;22.53;25.84961;936.8416;;;;
2022/04/18 08:57:45;;;;;;;1.4;1.2;;;;;;;22.13;25.82715;936.7473;;;;
2022/04/18 09:00:16;;;;;;;1.5;1.1;;;;;;;22.51;25.40332;936.7516;;;;
2022/04/18 09:02:45;;;;;;;1;0.9;;;;;;;21.26;27.33301;936.8006;;;;
2022/04/18 09:05:16;;;;;;;3.1;1.1;;;;;;;20.95;27.94531;936.7769;;;;
2022/04/18 09:07:46;;;;;;;1.6;1.2;;;;;;;20.49;28.06836;936.7853;;;;
2022/04/18 09:10:16;;;;;;;2.2;1.6;;;;;;;19.75;29.38574;936.7267;;;;
2022/04/18 09:12:47;;;;;;;2.2;1.3;;;;;;;19.06;30.72559;936.7385;;;;
2022/04/18 09:15:18;;;;;;;1.7;1;;;;;;;18.77;31.35645;936.7484;;;;
2022/04/18 09:17:45;;;;;;;2.1;1.3;;;;;;;19.19;31.57227;936.6907;;;;
2022/04/18 09:20:16;;;;;;;2.1;1.5;;;;;;;19.43;31.08887;936.7098;;;;
2022/04/18 09:22:45;;;;;;;1.2;1.1;;;;;;;18.17;32.38281;936.8113;;;;
2022/04/18 09:25:16;;;;;;;1.5;1.4;;;;;;;18.19;33.49902;936.6666;;;;
2022/04/18 09:27:41;;;;;;;2.3;1.6;;;;;;;18.44;33.16992;936.6428;;;;
2022/04/18 09:30:06;;;;;;;2.4;1.6;;;;;;;18.64;33.8584;936.6936;;;;
2022/04/18 09:32:35;;;;;;;1.6;1.5;;;;;;;18.84;32.44336;936.5672;;;;
2022/04/18 09:35:05;;;;;;;1.8;1.4;;;;;;;19.1;31.6709;936.4332;;;;
2022/04/18 09:37:32;;;;;;;1.7;1.5;;;;;;;18.48;33.00977;936.5541;;;;
2022/04/18 09:40:02;;;;;;;1.8;1.5;;;;;;;18.55;33.3877;936.5273;;;;
2022/04/18 09:42:33;;;;;;;2;1.5;;;;;;;17.8;34.86328;936.5302;;;;
2022/04/18 09:44:58;;;;;;;3.9;1.6;;;;;;;17.8;35.11816;936.4641;;;;
2022/04/18 09:47:23;;;;;;;1.5;1.4;;;;;;;17.29;35.2168;936.4567;;;;
2022/04/18 09:49:55;;;;;;;2.4;1.6;;;;;;;17.54;34.06445;936.4673;;;;
2022/04/18 09:52:26;;;;;;;1.8;1.4;;;;;;;17.15;35.25195;936.3898;;;;
2022/04/18 09:54:55;;;;;;;2.2;1.7;;;;;;;17.69;34.66797;936.4796;;;;
2022/04/18 09:57:20;;;;;;;3;1.7;;;;;;;17.56;35.04102;936.4187;;;;
2022/04/18 09:59:50;;;;;;;1.6;1.5;;;;;;;17.15;36.09863;936.4808;;;;
2022/04/18 10:02:17;;;;;;;2.6;1.7;;;;;;;17.05;35.40625;936.4456;;;;
2022/04/18 10:15:27;;;;;;;2;1.4;;;;;;;17.92;34.68652;936.2378;;;;
2022/04/18 10:17:54;;;;;;;1.6;1.5;;;;;;;17.21;34.95508;936.2053;;;;
2022/04/18 10:20:19;;;;;;;2.4;1.6;;;;;;;16.8;36.19629;936.2541;;;;
2022/04/18 10:22:51;;;;;;;1.7;1.6;;;;;;;16.46;36.49219;936.1838;;;;
2022/04/18 10:25:18;;;;;;;2.2;1.7;;;;;;;17.06;34.76855;936.1873;;;;
2022/04/18 10:27:43;;;;;;;2.5;1.7;;;;;;;17.28;34.84473;936.1254;;;;
2022/04/18 10:30:15;;;;;;;1.8;1.6;;;;;;;17.21;35.2334;936.1008;;;;
2022/04/18 10:32:45;;;;;;;2.2;1.5;;;;;;;17.26;35.70117;935.9052;;;;
2022/04/18 10:35:10;;;;;;;1.7;1.5;;;;;;;17.76;35.97363;936.0067;;;;
2022/04/18 10:37:41;;;;;;;1.5;1.4;;;;;;;18.52;33.58301;935.9627;;;;
2022/04/18 10:40:06;;;;;;;1.4;1.3;;;;;;;18.83;34.80469;935.968;;;;
2022/04/18 10:42:38;;;;;;;2.2;1.5;;;;;;;18.76;33.75195;935.85;;;;
2022/04/18 10:45:10;;;;;;;2;1.3;;;;;;;18.83;31.87207;935.9011;;;;
2022/04/18 10:47:41;;;;;;;1.5;1.4;;;;;;;19.39;30.8877;935.8452;;;;
2022/04/18 10:50:13;;;;;;;1.6;1.5;;;;;;;19.76;31.56641;935.8214;;;;
2022/04/18 10:52:44;;;;;;;2.2;1.5;;;;;;;18.91;32.37793;935.7578;;;;
2022/04/18 10:55:12;;;;;;;2.1;1.5;;;;;;;18.61;33.56641;935.7322;;;;
2022/04/18 10:57:37;;;;;;;2;1.2;;;;;;;18.27;33.16797;935.7696;;;;
2022/04/18 11:00:12;;;;;;;1.7;1.5;;;;;;;18.95;33.11523;935.692;;;;
2022/04/18 11:02:44;;;;;;;1.5;1.4;;;;;;;18.83;33.23438;935.6564;;;;
2022/04/18 11:05:11;;;;;;;2.6;1.6;;;;;;;19.28;30.32031;935.6658;;;;
2022/04/18 11:07:44;;;;;;;1.5;1.4;;;;;;;20.23;31.12109;935.6155;;;;
2022/04/18 11:10:08;;;;;;;1.5;1.3;;;;;;;20.25;30.77246;935.6141;;;;
2022/04/18 11:12:39;;;;;;;1.5;1.4;;;;;;;21.11;28.15332;935.5945;;;;
2022/04/18 11:15:04;;;;;;;2.2;1.2;;;;;;;21.2;29.27051;935.5939;;;;
2022/04/18 11:17:29;;;;;;;1.3;1.2;;;;;;;21.37;28.32227;935.5276;;;;
2022/04/18 11:19:54;;;;;;;2.4;1.2;;;;;;;21.48;29.24219;935.5385;;;;
2022/04/18 11:22:20;;;;;;;1.9;1.4;;;;;;;22.01;27.13281;935.5869;;;;
2022/04/18 11:24:45;;;;;;;1.9;1.3;;;;;;;21.99;28.11621;935.53;;;;
2022/04/18 11:27:10;;;;;;;3.8;2.1;;;;;;;21.14;29.47754;935.6202;;;;
2022/04/18 11:29:35;;;;;;;1.5;1.4;;;;;;;21.79;26.94434;935.54;;;;
2022/04/18 11:32:01;;;;;;;1.6;1.3;;;;;;;21.76;27.09473;935.4852;;;;
2022/04/18 11:34:27;;;;;;;1.6;1.3;;;;;;;20.82;28.5791;935.5719;;;;
2022/04/18 11:36:56;;;;;;;1.7;1.4;;;;;;;20.26;29.55957;935.4877;;;;
2022/04/18 11:39:27;;;;;;;1.6;1.4;;;;;;;20.14;29.02637;935.3682;;;;
2022/04/18 11:41:52;;;;;;;2.3;1.5;;;;;;;20.02;29.60156;935.4283;;;;
2022/04/18 11:44:19;;;;;;;1.7;1.4;;;;;;;20.58;28.96191;935.4533;;;;
2022/04/18 11:46:47;;;;;;;1.8;1.5;;;;;;;20.26;29.53613;935.4641;;;;
2022/04/18 11:49:12;;;;;;;2.7;1.3;;;;;;;20.32;28.81543;935.4324;;;;
2022/04/18 11:51:39;;;;;;;1.8;1.6;;;;;;;20.91;27.9541;935.4111;;;;
2022/04/18 11:54:08;;;;;;;2;1.4;;;;;;;20.52;29.82227;935.2921;;;;
2022/04/18 11:56:40;;;;;;;1.8;1.5;;;;;;;20.25;30.62109;935.272;;;;
2022/04/18 11:59:06;;;;;;;2.4;1.7;;;;;;;20.14;27.4502;935.2818;;;;
2022/04/18 12:07:06;;;;;;;1.5;1.4;;;;;;;20.14;27.96387;935.2244;;;;
2022/04/18 12:08:58;;;;;;;1.5;1.4;;;;;;;20.24;28.22754;935.2555;;;;
2022/04/18 12:11:29;;;;;;;2.1;1.5;;;;;;;20.03;28.31836;935.134;;;;
2022/04/18 12:13:55;;;;;;;2.3;1.6;;;;;;;20.01;29.35547;935.1596;;;;
2022/04/18 12:16:21;;;;;;;2.4;1.7;;;;;;;21.11;26.50488;935.1783;;;;
2022/04/18 12:18:46;;;;;;;2.1;1.5;;;;;;;21.59;25.11621;935.1599;;;;
2022/04/18 12:21:16;;;;;;;3;1.5;;;;;;;21.37;24.50684;935.09;;;;
2022/04/18 12:23:41;;;;;;;1.9;1.3;;;;;;;21.44;27.0166;935.0902;;;;
2022/04/18 12:26:06;;;;;;;2.1;1.4;;;;;;;20.38;26.48438;935.114;;;;
2022/04/18 12:28:31;;;;;;;1.9;1.1;;;;;;;20.27;27.03809;935.0936;;;;
2022/04/18 12:30:58;;;;;;;1.3;1.2;;;;;;;20.26;26.67578;935.0662;;;;
2022/04/18 12:33:23;;;;;;;2;1.4;;;;;;;20.4;26.00684;935.0504;;;;
2022/04/18 12:35:51;;;;;;;1.9;1.3;;;;;;;19.91;26.73633;935.0108;;;;
2022/04/18 12:38:16;;;;;;;3;1.3;;;;;;;19.85;26.0332;935.0773;;;;
2022/04/18 12:40:47;;;;;;;2.1;1.4;;;;;;;19.36;28.36816;935.0159;;;;
2022/04/18 12:43:16;;;;;;;2;1.4;;;;;;;18.17;29.32715;935.0043;;;;
2022/04/18 12:45:41;;;;;;;2.2;1.4;;;;;;;18.91;27.53711;935.0283;;;;
2022/04/18 12:48:10;;;;;;;1.2;1.1;;;;;;;18.89;29.9209;934.9578;;;;
2022/04/18 12:50:36;;;;;;;1.2;1.1;;;;;;;19.18;26.85449;934.9677;;;;
2022/04/18 12:53:01;;;;;;;1.7;1.4;;;;;;;18.55;28.53809;934.9517;;;;
2022/04/18 12:55:29;;;;;;;2.9;1.3;;;;;;;18.53;27.95508;934.8465;;;;
2022/04/18 12:57:57;;;;;;;2;1.2;;;;;;;18.27;28.87988;934.8215;;;;
2022/04/18 13:00:22;;;;;;;1.5;1.1;;;;;;;18.47;27.99805;934.9182;;;;
2022/04/18 13:05:41;;;;;;;1.4;1.3;;;;;;;17.83;28.33984;934.8731;;;;
2022/04/18 13:08:10;;;;;;;2.1;1.3;;;;;;;17.65;30.01172;934.863;;;;
2022/04/18 13:10:42;;;;;;;1.3;1.2;;;;;;;17.48;27.4707;934.8166;;;;
2022/04/18 13:13:11;;;;;;;2.3;1.2;;;;;;;17.06;28.99707;934.7665;;;;
2022/04/18 13:15:41;;;;;;;1.5;1.3;;;;;;;16.82;28.11328;934.8386;;;;
2022/04/18 13:18:10;;;;;;;1.3;1.2;;;;;;;16.87;27.9082;934.7395;;;;
2022/04/18 13:20:35;;;;;;;1.5;1.2;;;;;;;16.86;28.85742;934.7438;;;;
2022/04/18 13:23:01;;;;;;;1.5;1.4;;;;;;;16.77;29.34961;934.6528;;;;
2022/04/18 13:25:29;;;;;;;1;1;;;;;;;16.58;28.8623;934.6929;;;;
2022/04/18 13:27:55;;;;;;;1.5;1.2;;;;;;;16.63;30.62402;934.7036;;;;
2022/04/18 13:30:25;;;;;;;1.3;1.1;;;;;;;16.5;29.18066;934.6503;;;;
2022/04/18 13:32:50;;;;;;;1.3;1.2;;;;;;;16.27;30.4375;934.5917;;;;
2022/04/18 13:35:19;;;;;;;2.6;1.3;;;;;;;16.32;30.2793;934.5762;;;;
2022/04/18 13:37:51;;;;;;;1.4;1;;;;;;;16.16;28.77637;934.4993;;;;
2022/04/18 13:40:21;;;;;;;2.4;1.3;;;;;;;16.06;30.3418;934.5581;;;;
2022/04/18 13:42:46;;;;;;;1.9;1.4;;;;;;;15.94;30.36914;934.5463;;;;
2022/04/18 13:45:16;;;;;;;2.8;1.2;;;;;;;15.81;30.47461;934.4855;;;;
2022/04/18 13:47:47;;;;;;;1.9;1.5;;;;;;;15.74;29.89258;934.4916;;;;
2022/04/18 13:50:16;;;;;;;1.8;1.4;;;;;;;15.76;30.62109;934.4801;;;;
2022/04/18 13:52:42;;;;;;;1.7;1.3;;;;;;;15.8;30.9248;934.4127;;;;
2022/04/18 13:55:06;;;;;;;1.4;1.3;;;;;;;15.75;31.14063;934.4401;;;;
2022/04/18 13:57:38;;;;;;;1.4;1.3;;;;;;;15.98;30.44043;934.4003;;;;
2022/04/18 14:00:14;;;;;;;1.5;1.2;;;;;;;15.98;30.97266;934.4781;;;;
2022/04/18 14:02:45;;;;;;;1.4;1.2;;;;;;;16.03;30.58301;934.3909;;;;
2022/04/18 14:05:22;;;;;;;1.5;1.3;;;;;;;16.02;30.09668;934.4344;;;;
2022/04/18 14:07:54;;;;;;;1.7;1.5;;;;;;;16.05;30.64258;934.3672;;;;
2022/04/18 14:10:19;;;;;;;1.6;1.5;;;;;;;16.02;31.27539;934.2623;;;;
2022/04/18 14:12:51;;;;;;;1.5;1.3;;;;;;;15.8;30.57813;934.3405;;;;
2022/04/18 14:20:24;;;;;;;1.9;1.4;;;;;;;15.51;32.44043;934.2444;;;;
2022/04/18 14:22:46;;;;;;;1.7;1.4;;;;;;;15.46;33.24512;934.2925;;;;
2022/04/18 14:25:18;;;;;;;1.7;1.3;;;;;;;15.74;31.87988;934.2139;;;;
2022/04/18 14:27:49;;;;;;;2.3;1.4;;;;;;;15.8;30.59082;934.2673;;;;
2022/04/18 14:30:19;;;;;;;1.3;1.2;;;;;;;15.79;30.86719;934.1286;;;;
2022/04/18 14:33:50;;;;;;;2.5;1.5;;;;;;;15.64;31.34082;934.1121;;;;
2022/04/18 14:36:15;;;;;;;1.4;1.3;;;;;;;15.59;31.96191;934.1855;;;;
2022/04/18 14:38:39;;;;;;;2.2;1.5;;;;;;;15.41;32.92969;934.2352;;;;
2022/04/18 14:41:05;;;;;;;2;1.5;;;;;;;15.22;32.92676;934.1699;;;;
2022/04/18 14:43:29;;;;;;;1.7;1.2;;;;;;;15.18;33.59375;934.1863;;;;
2022/04/18 14:45:58;;;;;;;1.3;1.2;;;;;;;15.16;32.05664;934.1665;;;;
2022/04/18 14:48:26;;;;;;;1.9;1.4;;;;;;;15.25;32.8252;934.1742;;;;
2022/04/18 14:50:51;;;;;;;2;1.3;;;;;;;15.26;32.42285;934.1829;;;;
2022/04/18 14:56:53;;;;;;;1.9;1.4;;;;;;;15.43;31.31445;934.0708;;;;
2022/04/18 14:59:20;;;;;;;1.7;1.6;;;;;;;15.3;31.99707;934.0812;;;;
2022/04/18 15:01:55;;;;;;;2.3;1.4;;;;;;;15.19;32.45215;934.0666;;;;
2022/04/18 15:05:04;;;;;;;2;1.6;;;;;;;15.13;32.2041;934.0427;;;;
2022/04/18 15:07:29;;;;;;;1.4;1.2;;;;;;;15.01;33.39551;934.0842;;;;
2022/04/18 15:09:58;;;;;;;2.3;1.3;;;;;;;14.85;33.61328;934.072;;;;
2022/04/18 15:12:27;;;;;;;1.8;1.3;;;;;;;14.95;34.08203;934.0266;;;;
2022/04/18 15:14:48;;;;;;;1.7;1.2;;;;;;;14.94;33.26367;934.0803;;;;
2022/04/18 15:17:18;;;;;;;1.4;1.3;;;;;;;15.01;32.64648;934.113;;;;
2022/04/18 15:19:43;;;;;;;1.8;1.5;;;;;;;14.97;33.17285;934.1049;;;;
2022/04/18 15:22:12;;;;;;;1.9;1.4;;;;;;;14.92;32.91504;934.0823;;;;
2022/04/18 15:24:38;;;;;;;1.8;1.4;;;;;;;14.97;33.4043;934.0496;;;;
2022/04/18 15:27:02;;;;;;;1.3;1.2;;;;;;;14.97;33.20801;934.1;;;;
2022/04/18 15:29:32;;;;;;;2;1.5;;;;;;;14.91;34.55273;934.0767;;;;
2022/04/18 15:34:26;;;;;;;1.5;1.2;;;;;;;14.75;33.76758;934.1267;;;;
2022/04/18 15:36:50;;;;;;;2.8;1.5;;;;;;;14.81;34.77637;934.1685;;;;
2022/04/18 15:39:21;;;;;;;4.2;1.6;;;;;;;14.78;33.86328;934.1448;;;;
2022/04/18 15:41:53;;;;;;;1.5;1.4;;;;;;;14.7;33.4873;934.1563;;;;
2022/04/18 15:44:22;;;;;;;1.8;1.5;;;;;;;14.51;34.84375;934.1031;;;;
2022/04/18 15:46:46;;;;;;;1.7;1.3;;;;;;;14.58;33.71973;934.1552;;;;
2022/04/18 15:49:14;;;;;;;2.6;1.7;;;;;;;14.55;33.99414;934.1987;;;;
2022/04/18 15:51:37;;;;;;;1.7;1.3;;;;;;;14.56;34.46777;934.1481;;;;
2022/04/18 15:54:07;;;;;;;1.4;1.3;;;;;;;14.55;33.89063;934.2861;;;;
2022/04/18 15:56:32;;;;;;;1.4;1.3;;;;;;;14.58;33.9043;934.2312;;;;
2022/04/18 15:59:02;;;;;;;2.1;1.6;;;;;;;14.49;33.51758;934.2483;;;;
2022/04/18 16:01:26;;;;;;;1.3;1.2;;;;;;;14.42;33.67285;934.3058;;;;
2022/04/18 16:03:56;;;;;;;1.9;1.3;;;;;;;14.47;33.73438;934.223;;;;
2022/04/18 16:06:29;;;;;;;1.9;1.2;;;;;;;14.49;33.49316;934.3005;;;;